sensor_id;sensor_type;location;lat;lon;timestamp;P1;durP1;ratioP1;P2;durP2;ratioP2
72105;SDS011;59975;47.646;18.318;2023-04-06T00:01:02;6.67;;;4.20;;
72105;SDS011;59975;47.646;18.318;2023-04-06T00:03:27;8.97;;;4.87;;
72105;SDS011;59975;47.646;18.318;2023-04-06T00:05:53;8.37;;;4.30;;
72105;SDS011;59975;47.646;18.318;2023-04-06T00:08:18;8.88;;;4.40;;
72105;SDS011;59975;47.646;18.318;2023-04-06T00:10:46;7.30;;;4.22;;
72105;SDS011;59975;47.646;18.318;2023-04-06T00:13:11;9.23;;;5.40;;
72105;SDS011;59975;47.646;18.318;2023-04-06T00:15:37;8.52;;;4.15;;
72105;SDS011;59975;47.646;18.318;2023-04-06T00:18:03;11.00;;;4.25;;
72105;SDS011;59975;47.646;18.318;2023-04-06T00:20:28;7.60;;;4.70;;
72105;SDS011;59975;47.646;18.318;2023-04-06T00:22:54;7.43;;;3.90;;
72105;SDS011;59975;47.646;18.318;2023-04-06T00:25:20;7.38;;;4.53;;
72105;SDS011;59975;47.646;18.318;2023-04-06T00:27:45;14.63;;;4.65;;
72105;SDS011;59975;47.646;18.318;2023-04-06T00:30:11;6.95;;;4.25;;
72105;SDS011;59975;47.646;18.318;2023-04-06T00:32:36;8.57;;;4.27;;
72105;SDS011;59975;47.646;18.318;2023-04-06T00:35:05;11.07;;;4.63;;
72105;SDS011;59975;47.646;18.318;2023-04-06T00:37:31;10.73;;;4.10;;
72105;SDS011;59975;47.646;18.318;2023-04-06T00:39:57;9.02;;;4.03;;
72105;SDS011;59975;47.646;18.318;2023-04-06T00:42:23;8.93;;;4.32;;
72105;SDS011;59975;47.646;18.318;2023-04-06T00:44:53;8.05;;;5.05;;
72105;SDS011;59975;47.646;18.318;2023-04-06T00:47:22;14.80;;;5.03;;
72105;SDS011;59975;47.646;18.318;2023-04-06T00:49:50;8.20;;;4.80;;
72105;SDS011;59975;47.646;18.318;2023-04-06T00:52:15;7.32;;;4.22;;
72105;SDS011;59975;47.646;18.318;2023-04-06T00:54:41;10.23;;;4.73;;
72105;SDS011;59975;47.646;18.318;2023-04-06T00:57:06;9.05;;;4.72;;
72105;SDS011;59975;47.646;18.318;2023-04-06T00:59:32;9.65;;;4.75;;
72105;SDS011;59975;47.646;18.318;2023-04-06T01:01:58;10.07;;;5.20;;
72105;SDS011;59975;47.646;18.318;2023-04-06T01:04:23;11.20;;;5.25;;
72105;SDS011;59975;47.646;18.318;2023-04-06T01:06:49;12.83;;;5.63;;
72105;SDS011;59975;47.646;18.318;2023-04-06T01:09:16;14.57;;;6.70;;
72105;SDS011;59975;47.646;18.318;2023-04-06T01:11:42;13.98;;;6.50;;
72105;SDS011;59975;47.646;18.318;2023-04-06T01:14:07;13.50;;;6.67;;
72105;SDS011;59975;47.646;18.318;2023-04-06T01:16:33;10.30;;;5.75;;
72105;SDS011;59975;47.646;18.318;2023-04-06T01:19:00;11.68;;;4.78;;
72105;SDS011;59975;47.646;18.318;2023-04-06T01:21:25;10.17;;;4.60;;
72105;SDS011;59975;47.646;18.318;2023-04-06T01:23:51;13.80;;;5.27;;
72105;SDS011;59975;47.646;18.318;2023-04-06T01:26:17;9.32;;;5.30;;
72105;SDS011;59975;47.646;18.318;2023-04-06T01:28:42;11.53;;;4.67;;
72105;SDS011;59975;47.646;18.318;2023-04-06T01:31:09;13.85;;;6.05;;
72105;SDS011;59975;47.646;18.318;2023-04-06T01:33:35;11.70;;;5.03;;
72105;SDS011;59975;47.646;18.318;2023-04-06T01:36:01;11.90;;;5.50;;
72105;SDS011;59975;47.646;18.318;2023-04-06T01:38:28;10.50;;;4.97;;
72105;SDS011;59975;47.646;18.318;2023-04-06T01:40:53;11.47;;;4.60;;
72105;SDS011;59975;47.646;18.318;2023-04-06T01:43:19;9.55;;;4.13;;
72105;SDS011;59975;47.646;18.318;2023-04-06T01:45:45;8.52;;;4.38;;
72105;SDS011;59975;47.646;18.318;2023-04-06T01:48:11;10.73;;;5.37;;
72105;SDS011;59975;47.646;18.318;2023-04-06T01:50:36;8.82;;;5.28;;
72105;SDS011;59975;47.646;18.318;2023-04-06T01:53:02;9.93;;;5.22;;
72105;SDS011;59975;47.646;18.318;2023-04-06T01:55:27;9.30;;;4.23;;
72105;SDS011;59975;47.646;18.318;2023-04-06T01:57:53;8.53;;;4.80;;
72105;SDS011;59975;47.646;18.318;2023-04-06T02:00:18;10.18;;;4.13;;
72105;SDS011;59975;47.646;18.318;2023-04-06T02:02:44;8.95;;;4.90;;
72105;SDS011;59975;47.646;18.318;2023-04-06T02:05:10;8.05;;;3.97;;
72105;SDS011;59975;47.646;18.318;2023-04-06T02:07:35;5.97;;;3.67;;
72105;SDS011;59975;47.646;18.318;2023-04-06T02:10:02;7.20;;;4.57;;
72105;SDS011;59975;47.646;18.318;2023-04-06T02:12:28;8.70;;;4.57;;
72105;SDS011;59975;47.646;18.318;2023-04-06T02:14:53;7.87;;;4.93;;
72105;SDS011;59975;47.646;18.318;2023-04-06T02:17:19;9.27;;;4.53;;
72105;SDS011;59975;47.646;18.318;2023-04-06T02:19:44;8.43;;;4.53;;
72105;SDS011;59975;47.646;18.318;2023-04-06T02:22:10;10.30;;;4.63;;
72105;SDS011;59975;47.646;18.318;2023-04-06T02:24:35;13.95;;;4.78;;
72105;SDS011;59975;47.646;18.318;2023-04-06T02:27:01;8.27;;;4.53;;
72105;SDS011;59975;47.646;18.318;2023-04-06T02:29:27;9.83;;;4.83;;
72105;SDS011;59975;47.646;18.318;2023-04-06T02:31:52;9.43;;;4.30;;
72105;SDS011;59975;47.646;18.318;2023-04-06T02:34:17;9.20;;;4.30;;
72105;SDS011;59975;47.646;18.318;2023-04-06T02:36:44;7.80;;;4.37;;
72105;SDS011;59975;47.646;18.318;2023-04-06T02:39:10;8.98;;;4.85;;
72105;SDS011;59975;47.646;18.318;2023-04-06T02:41:36;11.85;;;5.25;;
72105;SDS011;59975;47.646;18.318;2023-04-06T02:44:01;11.57;;;4.85;;
72105;SDS011;59975;47.646;18.318;2023-04-06T02:46:27;13.15;;;5.50;;
72105;SDS011;59975;47.646;18.318;2023-04-06T02:48:53;8.03;;;4.60;;
72105;SDS011;59975;47.646;18.318;2023-04-06T02:51:18;11.07;;;5.00;;
72105;SDS011;59975;47.646;18.318;2023-04-06T02:53:44;9.00;;;4.45;;
72105;SDS011;59975;47.646;18.318;2023-04-06T02:56:10;11.65;;;4.75;;
72105;SDS011;59975;47.646;18.318;2023-04-06T02:58:35;17.20;;;4.63;;
72105;SDS011;59975;47.646;18.318;2023-04-06T03:01:01;8.60;;;4.55;;
72105;SDS011;59975;47.646;18.318;2023-04-06T03:03:27;11.38;;;4.68;;
72105;SDS011;59975;47.646;18.318;2023-04-06T03:05:53;10.87;;;5.03;;
72105;SDS011;59975;47.646;18.318;2023-04-06T03:08:21;9.20;;;4.57;;
72105;SDS011;59975;47.646;18.318;2023-04-06T03:10:46;10.30;;;4.60;;
72105;SDS011;59975;47.646;18.318;2023-04-06T03:13:12;8.03;;;4.33;;
72105;SDS011;59975;47.646;18.318;2023-04-06T03:15:37;10.85;;;5.07;;
72105;SDS011;59975;47.646;18.318;2023-04-06T03:18:03;10.10;;;5.33;;
72105;SDS011;59975;47.646;18.318;2023-04-06T03:20:28;10.83;;;4.70;;
72105;SDS011;59975;47.646;18.318;2023-04-06T03:22:54;7.80;;;4.45;;
72105;SDS011;59975;47.646;18.318;2023-04-06T03:25:20;11.20;;;5.10;;
72105;SDS011;59975;47.646;18.318;2023-04-06T03:27:45;10.75;;;5.10;;
72105;SDS011;59975;47.646;18.318;2023-04-06T03:30:11;11.73;;;5.67;;
72105;SDS011;59975;47.646;18.318;2023-04-06T03:32:36;15.83;;;5.77;;
72105;SDS011;59975;47.646;18.318;2023-04-06T03:35:02;12.02;;;5.25;;
72105;SDS011;59975;47.646;18.318;2023-04-06T03:37:28;11.03;;;5.40;;
72105;SDS011;59975;47.646;18.318;2023-04-06T03:39:53;13.45;;;5.65;;
72105;SDS011;59975;47.646;18.318;2023-04-06T03:42:19;12.27;;;6.10;;
72105;SDS011;59975;47.646;18.318;2023-04-06T03:44:44;14.03;;;5.97;;
72105;SDS011;59975;47.646;18.318;2023-04-06T03:47:10;14.00;;;6.23;;
72105;SDS011;59975;47.646;18.318;2023-04-06T03:49:35;10.50;;;5.40;;
72105;SDS011;59975;47.646;18.318;2023-04-06T03:52:01;13.35;;;5.05;;
72105;SDS011;59975;47.646;18.318;2023-04-06T03:54:26;13.53;;;5.57;;
72105;SDS011;59975;47.646;18.318;2023-04-06T03:56:52;15.97;;;7.60;;
72105;SDS011;59975;47.646;18.318;2023-04-06T03:59:17;14.63;;;6.45;;
72105;SDS011;59975;47.646;18.318;2023-04-06T04:01:43;15.60;;;6.20;;
72105;SDS011;59975;47.646;18.318;2023-04-06T04:04:10;16.93;;;7.40;;
72105;SDS011;59975;47.646;18.318;2023-04-06T04:06:35;19.40;;;8.88;;
72105;SDS011;59975;47.646;18.318;2023-04-06T04:09:01;17.95;;;7.65;;
72105;SDS011;59975;47.646;18.318;2023-04-06T04:11:27;18.97;;;8.03;;
72105;SDS011;59975;47.646;18.318;2023-04-06T04:13:53;16.05;;;8.27;;
72105;SDS011;59975;47.646;18.318;2023-04-06T04:16:18;23.13;;;8.53;;
72105;SDS011;59975;47.646;18.318;2023-04-06T04:18:44;21.00;;;8.87;;
72105;SDS011;59975;47.646;18.318;2023-04-06T04:21:10;22.20;;;8.02;;
72105;SDS011;59975;47.646;18.318;2023-04-06T04:23:36;20.88;;;8.13;;
72105;SDS011;59975;47.646;18.318;2023-04-06T04:26:01;18.97;;;8.17;;
72105;SDS011;59975;47.646;18.318;2023-04-06T04:28:27;15.63;;;7.70;;
72105;SDS011;59975;47.646;18.318;2023-04-06T04:30:52;13.57;;;6.73;;
72105;SDS011;59975;47.646;18.318;2023-04-06T04:33:18;19.53;;;7.93;;
72105;SDS011;59975;47.646;18.318;2023-04-06T04:35:43;18.23;;;7.37;;
72105;SDS011;59975;47.646;18.318;2023-04-06T04:38:09;26.15;;;6.72;;
72105;SDS011;59975;47.646;18.318;2023-04-06T04:40:34;14.03;;;7.17;;
72105;SDS011;59975;47.646;18.318;2023-04-06T04:43:00;18.63;;;6.07;;
72105;SDS011;59975;47.646;18.318;2023-04-06T04:45:25;15.27;;;7.32;;
72105;SDS011;59975;47.646;18.318;2023-04-06T04:47:51;16.52;;;8.13;;
72105;SDS011;59975;47.646;18.318;2023-04-06T04:50:16;18.20;;;7.83;;
72105;SDS011;59975;47.646;18.318;2023-04-06T04:52:42;14.67;;;6.47;;
72105;SDS011;59975;47.646;18.318;2023-04-06T04:55:07;15.80;;;7.05;;
72105;SDS011;59975;47.646;18.318;2023-04-06T04:57:33;15.50;;;6.70;;
72105;SDS011;59975;47.646;18.318;2023-04-06T04:59:59;14.60;;;7.03;;
72105;SDS011;59975;47.646;18.318;2023-04-06T05:02:24;17.60;;;7.30;;
72105;SDS011;59975;47.646;18.318;2023-04-06T05:04:50;11.85;;;5.97;;
72105;SDS011;59975;47.646;18.318;2023-04-06T05:07:15;16.13;;;7.83;;
72105;SDS011;59975;47.646;18.318;2023-04-06T05:09:43;15.18;;;6.85;;
72105;SDS011;59975;47.646;18.318;2023-04-06T05:12:09;11.57;;;6.55;;
72105;SDS011;59975;47.646;18.318;2023-04-06T05:14:35;10.57;;;6.90;;
72105;SDS011;59975;47.646;18.318;2023-04-06T05:17:00;14.05;;;6.95;;
72105;SDS011;59975;47.646;18.318;2023-04-06T05:19:26;14.97;;;6.93;;
72105;SDS011;59975;47.646;18.318;2023-04-06T05:21:52;13.98;;;7.10;;
72105;SDS011;59975;47.646;18.318;2023-04-06T05:24:17;13.80;;;7.17;;
72105;SDS011;59975;47.646;18.318;2023-04-06T05:26:43;14.60;;;6.47;;
72105;SDS011;59975;47.646;18.318;2023-04-06T05:29:08;13.90;;;7.05;;
72105;SDS011;59975;47.646;18.318;2023-04-06T05:31:35;15.07;;;8.18;;
72105;SDS011;59975;47.646;18.318;2023-04-06T05:34:00;20.23;;;8.03;;
72105;SDS011;59975;47.646;18.318;2023-04-06T05:36:26;14.60;;;7.93;;
72105;SDS011;59975;47.646;18.318;2023-04-06T05:38:51;22.17;;;8.65;;
72105;SDS011;59975;47.646;18.318;2023-04-06T05:41:17;18.20;;;8.35;;
72105;SDS011;59975;47.646;18.318;2023-04-06T05:43:43;22.50;;;9.13;;
72105;SDS011;59975;47.646;18.318;2023-04-06T05:46:09;15.93;;;7.17;;
72105;SDS011;59975;47.646;18.318;2023-04-06T05:48:35;22.25;;;8.25;;
72105;SDS011;59975;47.646;18.318;2023-04-06T05:51:01;19.77;;;7.45;;
72105;SDS011;59975;47.646;18.318;2023-04-06T05:53:27;27.27;;;8.88;;
72105;SDS011;59975;47.646;18.318;2023-04-06T05:55:54;18.80;;;9.52;;
72105;SDS011;59975;47.646;18.318;2023-04-06T05:58:19;21.73;;;7.95;;
72105;SDS011;59975;47.646;18.318;2023-04-06T06:00:45;18.90;;;8.63;;
72105;SDS011;59975;47.646;18.318;2023-04-06T06:03:11;14.13;;;7.33;;
72105;SDS011;59975;47.646;18.318;2023-04-06T06:05:37;15.85;;;8.13;;
72105;SDS011;59975;47.646;18.318;2023-04-06T06:08:03;18.83;;;8.47;;
72105;SDS011;59975;47.646;18.318;2023-04-06T06:10:28;18.67;;;9.25;;
72105;SDS011;59975;47.646;18.318;2023-04-06T06:12:54;15.83;;;8.40;;
72105;SDS011;59975;47.646;18.318;2023-04-06T06:15:20;13.40;;;7.55;;
72105;SDS011;59975;47.646;18.318;2023-04-06T06:17:45;14.70;;;7.83;;
72105;SDS011;59975;47.646;18.318;2023-04-06T06:20:11;19.07;;;8.60;;
72105;SDS011;59975;47.646;18.318;2023-04-06T06:22:37;12.85;;;6.63;;
72105;SDS011;59975;47.646;18.318;2023-04-06T06:25:02;14.93;;;7.37;;
72105;SDS011;59975;47.646;18.318;2023-04-06T06:27:28;17.05;;;8.60;;
72105;SDS011;59975;47.646;18.318;2023-04-06T06:29:54;19.37;;;8.33;;
72105;SDS011;59975;47.646;18.318;2023-04-06T06:32:19;11.82;;;7.07;;
72105;SDS011;59975;47.646;18.318;2023-04-06T06:34:45;18.87;;;8.40;;
72105;SDS011;59975;47.646;18.318;2023-04-06T06:37:11;12.25;;;6.35;;
72105;SDS011;59975;47.646;18.318;2023-04-06T06:39:36;17.35;;;7.28;;
72105;SDS011;59975;47.646;18.318;2023-04-06T06:42:02;13.10;;;7.40;;
72105;SDS011;59975;47.646;18.318;2023-04-06T06:44:27;19.47;;;7.97;;
72105;SDS011;59975;47.646;18.318;2023-04-06T06:46:53;17.83;;;7.80;;
72105;SDS011;59975;47.646;18.318;2023-04-06T06:49:19;19.23;;;7.15;;
72105;SDS011;59975;47.646;18.318;2023-04-06T06:51:45;18.67;;;7.33;;
72105;SDS011;59975;47.646;18.318;2023-04-06T06:54:11;13.35;;;6.90;;
72105;SDS011;59975;47.646;18.318;2023-04-06T06:56:37;25.25;;;8.48;;
72105;SDS011;59975;47.646;18.318;2023-04-06T06:59:10;15.57;;;6.43;;
72105;SDS011;59975;47.646;18.318;2023-04-06T07:01:36;16.50;;;8.57;;
72105;SDS011;59975;47.646;18.318;2023-04-06T07:04:01;15.30;;;7.87;;
72105;SDS011;59975;47.646;18.318;2023-04-06T07:06:27;18.10;;;7.37;;
72105;SDS011;59975;47.646;18.318;2023-04-06T07:08:52;16.40;;;7.85;;
72105;SDS011;59975;47.646;18.318;2023-04-06T07:11:18;23.67;;;8.07;;
72105;SDS011;59975;47.646;18.318;2023-04-06T07:13:43;23.97;;;8.23;;
72105;SDS011;59975;47.646;18.318;2023-04-06T07:16:09;15.52;;;7.85;;
72105;SDS011;59975;47.646;18.318;2023-04-06T07:18:34;20.40;;;8.57;;
72105;SDS011;59975;47.646;18.318;2023-04-06T07:21:00;23.40;;;9.57;;
72105;SDS011;59975;47.646;18.318;2023-04-06T07:23:25;21.87;;;8.63;;
72105;SDS011;59975;47.646;18.318;2023-04-06T07:25:51;20.98;;;7.90;;
72105;SDS011;59975;47.646;18.318;2023-04-06T07:28:18;16.38;;;8.25;;
72105;SDS011;59975;47.646;18.318;2023-04-06T07:30:44;16.23;;;8.60;;
72105;SDS011;59975;47.646;18.318;2023-04-06T07:33:09;14.30;;;7.70;;
72105;SDS011;59975;47.646;18.318;2023-04-06T07:35:35;22.48;;;7.88;;
72105;SDS011;59975;47.646;18.318;2023-04-06T07:38:01;17.67;;;7.20;;
72105;SDS011;59975;47.646;18.318;2023-04-06T07:40:27;18.38;;;6.95;;
72105;SDS011;59975;47.646;18.318;2023-04-06T07:42:53;13.13;;;6.65;;
72105;SDS011;59975;47.646;18.318;2023-04-06T07:45:19;13.90;;;6.50;;
72105;SDS011;59975;47.646;18.318;2023-04-06T07:47:44;13.98;;;6.43;;
72105;SDS011;59975;47.646;18.318;2023-04-06T07:50:11;13.43;;;5.97;;
72105;SDS011;59975;47.646;18.318;2023-04-06T07:52:36;9.17;;;4.80;;
72105;SDS011;59975;47.646;18.318;2023-04-06T07:55:03;16.42;;;7.10;;
72105;SDS011;59975;47.646;18.318;2023-04-06T07:57:29;13.02;;;6.43;;
72105;SDS011;59975;47.646;18.318;2023-04-06T07:59:54;17.47;;;7.23;;
72105;SDS011;59975;47.646;18.318;2023-04-06T08:02:19;14.73;;;7.63;;
72105;SDS011;59975;47.646;18.318;2023-04-06T08:04:45;12.03;;;5.80;;
72105;SDS011;59975;47.646;18.318;2023-04-06T08:07:11;12.30;;;5.53;;
72105;SDS011;59975;47.646;18.318;2023-04-06T08:09:36;13.23;;;6.03;;
72105;SDS011;59975;47.646;18.318;2023-04-06T08:12:02;10.65;;;5.05;;
72105;SDS011;59975;47.646;18.318;2023-04-06T08:14:27;10.43;;;5.27;;
72105;SDS011;59975;47.646;18.318;2023-04-06T08:16:53;15.90;;;6.87;;
72105;SDS011;59975;47.646;18.318;2023-04-06T08:19:18;16.75;;;7.40;;
72105;SDS011;59975;47.646;18.318;2023-04-06T08:21:44;12.70;;;5.57;;
72105;SDS011;59975;47.646;18.318;2023-04-06T08:24:11;13.25;;;6.32;;
72105;SDS011;59975;47.646;18.318;2023-04-06T08:26:37;12.73;;;5.97;;
72105;SDS011;59975;47.646;18.318;2023-04-06T08:29:02;12.60;;;6.07;;
72105;SDS011;59975;47.646;18.318;2023-04-06T08:31:29;17.58;;;6.13;;
72105;SDS011;59975;47.646;18.318;2023-04-06T08:33:55;10.18;;;6.72;;
72105;SDS011;59975;47.646;18.318;2023-04-06T08:36:20;14.43;;;6.50;;
72105;SDS011;59975;47.646;18.318;2023-04-06T08:38:48;13.13;;;7.05;;
72105;SDS011;59975;47.646;18.318;2023-04-06T08:41:14;16.25;;;7.50;;
72105;SDS011;59975;47.646;18.318;2023-04-06T08:46:36;13.25;;;6.75;;
72105;SDS011;59975;47.646;18.318;2023-04-06T08:49:02;10.33;;;5.47;;
72105;SDS011;59975;47.646;18.318;2023-04-06T08:51:29;10.77;;;5.93;;
72105;SDS011;59975;47.646;18.318;2023-04-06T08:53:58;12.27;;;6.18;;
72105;SDS011;59975;47.646;18.318;2023-04-06T08:56:25;8.80;;;5.05;;
72105;SDS011;59975;47.646;18.318;2023-04-06T08:58:52;7.20;;;4.28;;
72105;SDS011;59975;47.646;18.318;2023-04-06T09:01:20;6.80;;;3.63;;
72105;SDS011;59975;47.646;18.318;2023-04-06T09:03:48;13.32;;;4.40;;
72105;SDS011;59975;47.646;18.318;2023-04-06T09:06:15;9.48;;;5.22;;
72105;SDS011;59975;47.646;18.318;2023-04-06T09:08:42;7.63;;;4.90;;
72105;SDS011;59975;47.646;18.318;2023-04-06T09:11:07;13.53;;;6.77;;
72105;SDS011;59975;47.646;18.318;2023-04-06T09:13:46;18.67;;;7.60;;
72105;SDS011;59975;47.646;18.318;2023-04-06T09:16:14;14.30;;;7.78;;
72105;SDS011;59975;47.646;18.318;2023-04-06T09:18:40;14.07;;;7.22;;
72105;SDS011;59975;47.646;18.318;2023-04-06T09:21:06;17.02;;;5.57;;
72105;SDS011;59975;47.646;18.318;2023-04-06T09:23:33;9.05;;;4.00;;
72105;SDS011;59975;47.646;18.318;2023-04-06T09:28:50;16.45;;;6.07;;
72105;SDS011;59975;47.646;18.318;2023-04-06T09:31:22;13.67;;;5.53;;
72105;SDS011;59975;47.646;18.318;2023-04-06T09:33:57;12.52;;;6.50;;
72105;SDS011;59975;47.646;18.318;2023-04-06T09:36:36;9.25;;;5.32;;
72105;SDS011;59975;47.646;18.318;2023-04-06T09:39:06;15.93;;;5.70;;
72105;SDS011;59975;47.646;18.318;2023-04-06T09:41:35;15.43;;;6.63;;
72105;SDS011;59975;47.646;18.318;2023-04-06T09:44:05;14.32;;;6.75;;
72105;SDS011;59975;47.646;18.318;2023-04-06T09:46:38;13.27;;;6.57;;
72105;SDS011;59975;47.646;18.318;2023-04-06T09:49:06;12.70;;;5.75;;
72105;SDS011;59975;47.646;18.318;2023-04-06T09:51:44;11.80;;;6.28;;
72105;SDS011;59975;47.646;18.318;2023-04-06T09:54:15;13.98;;;6.07;;
72105;SDS011;59975;47.646;18.318;2023-04-06T09:56:50;15.50;;;5.40;;
72105;SDS011;59975;47.646;18.318;2023-04-06T10:02:50;8.88;;;3.78;;
72105;SDS011;59975;47.646;18.318;2023-04-06T10:05:21;10.32;;;5.65;;
72105;SDS011;59975;47.646;18.318;2023-04-06T10:07:50;12.20;;;5.15;;
72105;SDS011;59975;47.646;18.318;2023-04-06T10:10:19;12.43;;;5.43;;
72105;SDS011;59975;47.646;18.318;2023-04-06T10:12:45;9.85;;;5.70;;
72105;SDS011;59975;47.646;18.318;2023-04-06T10:15:12;13.70;;;5.43;;
72105;SDS011;59975;47.646;18.318;2023-04-06T10:17:38;15.50;;;6.30;;
72105;SDS011;59975;47.646;18.318;2023-04-06T10:20:06;6.77;;;4.10;;
72105;SDS011;59975;47.646;18.318;2023-04-06T10:22:36;9.93;;;5.38;;
72105;SDS011;59975;47.646;18.318;2023-04-06T10:25:08;7.55;;;4.90;;
72105;SDS011;59975;47.646;18.318;2023-04-06T10:27:34;11.40;;;6.05;;
72105;SDS011;59975;47.646;18.318;2023-04-06T10:30:03;13.20;;;6.07;;
72105;SDS011;59975;47.646;18.318;2023-04-06T10:35:07;13.77;;;6.13;;
72105;SDS011;59975;47.646;18.318;2023-04-06T10:37:46;10.10;;;5.22;;
72105;SDS011;59975;47.646;18.318;2023-04-06T10:40:20;12.23;;;6.93;;
72105;SDS011;59975;47.646;18.318;2023-04-06T10:42:48;16.80;;;7.35;;
72105;SDS011;59975;47.646;18.318;2023-04-06T10:45:23;12.43;;;5.83;;
72105;SDS011;59975;47.646;18.318;2023-04-06T10:47:53;15.52;;;6.60;;
72105;SDS011;59975;47.646;18.318;2023-04-06T10:50:19;13.75;;;6.25;;
72105;SDS011;59975;47.646;18.318;2023-04-06T10:52:46;13.65;;;5.95;;
72105;SDS011;59975;47.646;18.318;2023-04-06T10:55:12;16.40;;;7.25;;
72105;SDS011;59975;47.646;18.318;2023-04-06T10:57:38;13.80;;;7.68;;
72105;SDS011;59975;47.646;18.318;2023-04-06T11:00:05;13.27;;;6.15;;
72105;SDS011;59975;47.646;18.318;2023-04-06T11:02:31;12.00;;;7.37;;
72105;SDS011;59975;47.646;18.318;2023-04-06T11:04:57;15.93;;;6.93;;
72105;SDS011;59975;47.646;18.318;2023-04-06T11:07:26;15.68;;;6.80;;
72105;SDS011;59975;47.646;18.318;2023-04-06T11:09:54;13.55;;;7.40;;
72105;SDS011;59975;47.646;18.318;2023-04-06T11:12:23;14.03;;;8.23;;
72105;SDS011;59975;47.646;18.318;2023-04-06T11:14:54;14.25;;;6.88;;
72105;SDS011;59975;47.646;18.318;2023-04-06T11:17:35;15.82;;;8.55;;
72105;SDS011;59975;47.646;18.318;2023-04-06T11:20:02;16.73;;;7.30;;
72105;SDS011;59975;47.646;18.318;2023-04-06T11:22:29;13.25;;;7.15;;
72105;SDS011;59975;47.646;18.318;2023-04-06T11:25:06;11.80;;;6.83;;
72105;SDS011;59975;47.646;18.318;2023-04-06T11:27:33;20.90;;;8.27;;
72105;SDS011;59975;47.646;18.318;2023-04-06T11:29:59;14.82;;;7.03;;
72105;SDS011;59975;47.646;18.318;2023-04-06T11:32:26;13.18;;;6.97;;
72105;SDS011;59975;47.646;18.318;2023-04-06T11:34:51;12.93;;;7.93;;
72105;SDS011;59975;47.646;18.318;2023-04-06T11:37:17;18.60;;;6.93;;
72105;SDS011;59975;47.646;18.318;2023-04-06T11:44:53;15.65;;;8.00;;
72105;SDS011;59975;47.646;18.318;2023-04-06T11:47:19;22.02;;;6.75;;
72105;SDS011;59975;47.646;18.318;2023-04-06T11:49:51;14.27;;;7.50;;
72105;SDS011;59975;47.646;18.318;2023-04-06T11:52:18;16.57;;;6.93;;
72105;SDS011;59975;47.646;18.318;2023-04-06T11:54:46;16.83;;;8.18;;
72105;SDS011;59975;47.646;18.318;2023-04-06T11:57:13;12.57;;;7.25;;
72105;SDS011;59975;47.646;18.318;2023-04-06T11:59:39;15.30;;;6.95;;
72105;SDS011;59975;47.646;18.318;2023-04-06T12:02:05;10.50;;;5.40;;
72105;SDS011;59975;47.646;18.318;2023-04-06T12:04:31;8.68;;;5.45;;
72105;SDS011;59975;47.646;18.318;2023-04-06T12:06:57;9.85;;;6.22;;
72105;SDS011;59975;47.646;18.318;2023-04-06T12:09:23;13.98;;;7.05;;
72105;SDS011;59975;47.646;18.318;2023-04-06T12:11:49;17.48;;;6.53;;
72105;SDS011;59975;47.646;18.318;2023-04-06T12:14:15;8.48;;;5.22;;
72105;SDS011;59975;47.646;18.318;2023-04-06T12:16:41;8.70;;;5.10;;
72105;SDS011;59975;47.646;18.318;2023-04-06T12:19:07;12.02;;;6.90;;
72105;SDS011;59975;47.646;18.318;2023-04-06T12:21:33;12.20;;;5.75;;
72105;SDS011;59975;47.646;18.318;2023-04-06T12:24:01;12.73;;;5.73;;
72105;SDS011;59975;47.646;18.318;2023-04-06T12:26:27;11.63;;;6.28;;
72105;SDS011;59975;47.646;18.318;2023-04-06T12:28:53;13.60;;;7.33;;
72105;SDS011;59975;47.646;18.318;2023-04-06T12:31:20;15.20;;;7.35;;
72105;SDS011;59975;47.646;18.318;2023-04-06T12:33:47;12.37;;;6.07;;
72105;SDS011;59975;47.646;18.318;2023-04-06T12:36:14;14.55;;;6.68;;
72105;SDS011;59975;47.646;18.318;2023-04-06T12:38:44;12.98;;;6.55;;
72105;SDS011;59975;47.646;18.318;2023-04-06T12:41:10;12.32;;;6.13;;
72105;SDS011;59975;47.646;18.318;2023-04-06T12:43:36;13.40;;;6.93;;
72105;SDS011;59975;47.646;18.318;2023-04-06T12:46:02;13.37;;;5.67;;
72105;SDS011;59975;47.646;18.318;2023-04-06T12:48:28;9.63;;;6.15;;
72105;SDS011;59975;47.646;18.318;2023-04-06T12:51:00;9.93;;;6.47;;
72105;SDS011;59975;47.646;18.318;2023-04-06T12:53:27;12.65;;;6.03;;
72105;SDS011;59975;47.646;18.318;2023-04-06T12:55:56;13.70;;;6.10;;
72105;SDS011;59975;47.646;18.318;2023-04-06T12:58:22;14.23;;;6.03;;
72105;SDS011;59975;47.646;18.318;2023-04-06T13:00:49;12.85;;;5.95;;
72105;SDS011;59975;47.646;18.318;2023-04-06T13:03:15;13.18;;;6.07;;
72105;SDS011;59975;47.646;18.318;2023-04-06T13:05:45;10.90;;;6.27;;
72105;SDS011;59975;47.646;18.318;2023-04-06T13:08:12;12.05;;;5.68;;
72105;SDS011;59975;47.646;18.318;2023-04-06T13:10:49;14.07;;;6.15;;
72105;SDS011;59975;47.646;18.318;2023-04-06T13:13:17;11.35;;;5.80;;
72105;SDS011;59975;47.646;18.318;2023-04-06T13:15:50;14.68;;;6.78;;
72105;SDS011;59975;47.646;18.318;2023-04-06T13:18:16;11.73;;;5.63;;
72105;SDS011;59975;47.646;18.318;2023-04-06T13:20:42;12.02;;;5.88;;
72105;SDS011;59975;47.646;18.318;2023-04-06T13:23:07;12.03;;;6.40;;
72105;SDS011;59975;47.646;18.318;2023-04-06T13:25:33;11.13;;;5.97;;
72105;SDS011;59975;47.646;18.318;2023-04-06T13:27:59;11.30;;;5.72;;
72105;SDS011;59975;47.646;18.318;2023-04-06T13:30:24;13.07;;;5.50;;
72105;SDS011;59975;47.646;18.318;2023-04-06T13:32:50;9.15;;;5.97;;
72105;SDS011;59975;47.646;18.318;2023-04-06T13:35:16;8.53;;;4.97;;
72105;SDS011;59975;47.646;18.318;2023-04-06T13:37:43;9.10;;;4.93;;
72105;SDS011;59975;47.646;18.318;2023-04-06T13:40:09;14.90;;;6.78;;
72105;SDS011;59975;47.646;18.318;2023-04-06T13:42:35;12.93;;;5.82;;
72105;SDS011;59975;47.646;18.318;2023-04-06T13:45:01;12.37;;;6.03;;
72105;SDS011;59975;47.646;18.318;2023-04-06T13:47:26;9.13;;;5.45;;
72105;SDS011;59975;47.646;18.318;2023-04-06T13:49:52;12.10;;;5.23;;
72105;SDS011;59975;47.646;18.318;2023-04-06T13:52:20;11.45;;;6.10;;
72105;SDS011;59975;47.646;18.318;2023-04-06T13:54:45;17.67;;;5.82;;
72105;SDS011;59975;47.646;18.318;2023-04-06T13:57:11;9.63;;;5.80;;
72105;SDS011;59975;47.646;18.318;2023-04-06T13:59:37;9.50;;;4.95;;
72105;SDS011;59975;47.646;18.318;2023-04-06T14:02:04;12.57;;;5.73;;
72105;SDS011;59975;47.646;18.318;2023-04-06T14:04:32;12.40;;;6.25;;
72105;SDS011;59975;47.646;18.318;2023-04-06T14:06:58;11.95;;;5.60;;
72105;SDS011;59975;47.646;18.318;2023-04-06T14:09:24;11.05;;;6.45;;
72105;SDS011;59975;47.646;18.318;2023-04-06T14:11:50;12.47;;;6.33;;
72105;SDS011;59975;47.646;18.318;2023-04-06T14:14:15;17.15;;;6.57;;
72105;SDS011;59975;47.646;18.318;2023-04-06T14:16:41;12.13;;;5.33;;
72105;SDS011;59975;47.646;18.318;2023-04-06T14:19:13;13.10;;;5.80;;
72105;SDS011;59975;47.646;18.318;2023-04-06T14:21:46;11.20;;;5.38;;
72105;SDS011;59975;47.646;18.318;2023-04-06T14:24:12;12.02;;;6.07;;
72105;SDS011;59975;47.646;18.318;2023-04-06T14:26:39;9.55;;;4.80;;
72105;SDS011;59975;47.646;18.318;2023-04-06T14:29:06;13.63;;;6.30;;
72105;SDS011;59975;47.646;18.318;2023-04-06T14:31:32;13.02;;;6.95;;
72105;SDS011;59975;47.646;18.318;2023-04-06T14:33:58;14.47;;;7.07;;
72105;SDS011;59975;47.646;18.318;2023-04-06T14:36:26;12.30;;;6.07;;